createdAt,value
2023-07-17T00:00:09.920Z,48.06
2023-07-17T00:01:09.970Z,48.11
2023-07-17T00:02:09.925Z,48.22
2023-07-17T00:03:09.977Z,48.12
2023-07-17T00:04:09.967Z,48.01
2023-07-17T00:05:09.912Z,48.07
2023-07-17T00:06:09.995Z,48.06
2023-07-17T00:07:09.911Z,47.98
2023-07-17T00:08:09.884Z,48.45
2023-07-17T00:09:09.879Z,48.30
2023-07-17T00:10:09.853Z,48.37
2023-07-17T00:11:09.895Z,48.38
2023-07-17T00:12:09.846Z,48.41
2023-07-17T00:13:09.870Z,48.40
2023-07-17T00:14:09.839Z,48.34
2023-07-17T00:15:09.814Z,48.34
2023-07-17T00:16:09.846Z,48.32
2023-07-17T00:17:10.038Z,48.28
2023-07-17T00:18:09.917Z,48.34
2023-07-17T00:19:09.905Z,48.34
2023-07-17T00:20:09.990Z,48.33
2023-07-17T00:21:09.963Z,48.37
2023-07-17T00:22:09.978Z,48.32
2023-07-17T00:23:10.063Z,48.36
2023-07-17T00:24:10.033Z,48.24
2023-07-17T00:25:10.062Z,48.29
2023-07-17T00:26:10.155Z,48.25
2023-07-17T00:27:10.107Z,48.24
2023-07-17T00:28:10.138Z,48.35
2023-07-17T00:29:10.168Z,48.26
2023-07-17T00:30:10.224Z,48.23
2023-07-17T00:31:10.317Z,48.17
2023-07-17T00:32:10.256Z,48.09
2023-07-17T00:33:10.367Z,48.08
2023-07-17T00:34:10.321Z,48.14
2023-07-17T00:35:10.363Z,48.06
2023-07-17T00:36:10.370Z,48.05
2023-07-17T00:37:10.410Z,48.07
2023-07-17T00:38:10.417Z,48.05
2023-07-17T00:39:10.505Z,48.16
2023-07-17T00:40:10.516Z,48.10
2023-07-17T00:41:10.623Z,48.22
2023-07-17T00:42:10.618Z,48.19
2023-07-17T00:43:10.683Z,48.15
2023-07-17T00:44:10.723Z,48.25
2023-07-17T00:45:10.751Z,48.28
2023-07-17T00:46:10.793Z,48.30
2023-07-17T00:47:10.824Z,48.21
2023-07-17T00:48:10.883Z,48.19
2023-07-17T00:49:10.927Z,48.25
2023-07-17T00:50:10.974Z,48.28
2023-07-17T00:51:11.032Z,48.33
2023-07-17T00:52:11.101Z,48.39
2023-07-17T00:53:11.128Z,48.36
2023-07-17T00:54:11.157Z,48.30
2023-07-17T00:55:11.189Z,48.30
2023-07-17T00:56:11.217Z,48.25
2023-07-17T00:57:11.261Z,48.26
2023-07-17T00:58:11.370Z,48.20
2023-07-17T00:59:11.411Z,48.21
2023-07-17T01:00:11.453Z,48.14
2023-07-17T01:01:11.513Z,48.19
2023-07-17T01:02:11.542Z,48.14
2023-07-17T01:03:11.707Z,48.19
2023-07-17T01:04:11.638Z,48.24
2023-07-17T01:05:11.702Z,48.36
2023-07-17T01:06:11.748Z,48.31
2023-07-17T01:07:11.827Z,48.29
2023-07-17T01:08:11.861Z,48.27
2023-07-17T01:09:11.954Z,48.34
2023-07-17T01:10:11.974Z,48.33
2023-07-17T01:11:12.040Z,48.40
2023-07-17T01:12:12.126Z,48.47
2023-07-17T01:13:12.126Z,48.43
2023-07-17T01:14:12.203Z,48.44
2023-07-17T01:15:12.269Z,48.54
2023-07-17T01:16:12.365Z,48.50
2023-07-17T01:17:12.432Z,48.48
2023-07-17T01:18:12.457Z,48.54
2023-07-17T01:19:12.505Z,48.58
2023-07-17T01:20:12.539Z,48.54
2023-07-17T01:21:12.641Z,48.45
2023-07-17T01:22:12.679Z,48.50
2023-07-17T01:23:12.838Z,48.73
2023-07-17T01:24:12.771Z,48.57
2023-07-17T01:25:12.891Z,48.64
2023-07-17T01:26:12.877Z,48.76
2023-07-17T01:27:12.860Z,49.02
2023-07-17T01:28:12.913Z,49.29
2023-07-17T01:29:12.920Z,48.90
2023-07-17T01:30:12.993Z,49.14
2023-07-17T01:31:13.093Z,49.21
2023-07-17T01:32:13.062Z,49.01
2023-07-17T01:33:13.087Z,48.98
2023-07-17T01:34:13.098Z,48.97
2023-07-17T01:35:13.174Z,48.85
2023-07-17T01:36:13.199Z,48.93
2023-07-17T01:37:13.268Z,48.98
2023-07-17T01:38:13.279Z,48.94
2023-07-17T01:39:13.313Z,48.96
2023-07-17T01:40:13.325Z,48.78
2023-07-17T01:41:13.388Z,48.89
2023-07-17T01:42:13.426Z,48.88
2023-07-17T01:43:13.420Z,48.82
2023-07-17T01:44:13.472Z,48.87
2023-07-17T01:45:13.560Z,48.74
2023-07-17T01:46:13.621Z,48.63
2023-07-17T01:47:13.674Z,48.52
2023-07-17T01:48:13.758Z,48.44
2023-07-17T01:49:13.786Z,48.52
2023-07-17T01:50:13.853Z,48.62
2023-07-17T01:51:13.921Z,48.49
2023-07-17T01:52:13.981Z,48.46
2023-07-17T01:53:14.004Z,48.90
2023-07-17T01:54:14.083Z,48.69
2023-07-17T01:55:14.112Z,48.55
2023-07-17T01:56:14.138Z,48.65
2023-07-17T01:57:14.225Z,48.73
2023-07-17T01:58:14.222Z,48.63
2023-07-17T01:59:14.222Z,48.70
2023-07-17T02:00:14.273Z,48.65
2023-07-17T02:01:14.296Z,48.86
2023-07-17T02:02:14.326Z,48.79
2023-07-17T02:03:14.250Z,48.69
2023-07-17T02:04:14.275Z,48.66
2023-07-17T02:05:14.314Z,48.86
2023-07-17T02:06:14.240Z,49.00
2023-07-17T02:07:14.218Z,48.98
2023-07-17T02:08:14.237Z,48.92
2023-07-17T02:09:14.253Z,48.82
2023-07-17T02:10:14.262Z,48.88
2023-07-17T02:11:14.263Z,49.49
2023-07-17T02:12:14.250Z,49.64
2023-07-17T02:13:14.253Z,49.39
2023-07-17T02:14:14.271Z,49.33
2023-07-17T02:15:14.275Z,49.28
2023-07-17T02:16:14.277Z,49.25
2023-07-17T02:17:14.303Z,49.08
2023-07-17T02:18:14.285Z,49.13
2023-07-17T02:19:14.288Z,49.05
2023-07-17T02:20:14.395Z,49.00
2023-07-17T02:21:14.263Z,49.01
2023-07-17T02:22:14.307Z,49.14
2023-07-17T02:23:14.355Z,49.08
2023-07-17T02:24:14.305Z,48.92
2023-07-17T02:25:14.276Z,48.93
2023-07-17T02:26:14.311Z,48.95
2023-07-17T02:27:14.297Z,48.87
2023-07-17T02:28:14.250Z,48.91
2023-07-17T02:29:14.310Z,48.91
2023-07-17T02:30:14.293Z,48.85
2023-07-17T02:31:14.406Z,48.86
2023-07-17T02:32:14.369Z,48.87
2023-07-17T02:33:14.299Z,48.84
2023-07-17T02:34:14.340Z,48.67
2023-07-17T02:35:14.310Z,48.65
2023-07-17T02:36:14.332Z,48.71
2023-07-17T02:37:14.317Z,48.67
2023-07-17T02:38:14.285Z,48.66
2023-07-17T02:39:14.340Z,48.70
2023-07-17T02:40:14.347Z,48.82
2023-07-17T02:41:14.359Z,48.83
2023-07-17T02:42:14.365Z,48.84
2023-07-17T02:43:14.454Z,50.01
2023-07-17T02:44:14.468Z,49.85
2023-07-17T02:45:14.533Z,49.67
2023-07-17T02:46:14.623Z,49.81
2023-07-17T02:47:14.613Z,49.91
2023-07-17T02:48:14.670Z,49.89
2023-07-17T02:49:14.715Z,49.79
2023-07-17T02:50:14.774Z,49.87
2023-07-17T02:51:14.917Z,49.90
2023-07-17T02:52:14.782Z,49.90
2023-07-17T02:53:14.802Z,49.89
2023-07-17T02:54:14.835Z,49.88
2023-07-17T02:55:14.830Z,49.89
2023-07-17T02:56:14.816Z,50.00
2023-07-17T02:57:14.869Z,50.00
2023-07-17T02:58:14.818Z,50.00
2023-07-17T02:59:14.840Z,49.98
2023-07-17T03:00:14.878Z,50.01
2023-07-17T03:01:14.920Z,50.04
2023-07-17T03:02:14.918Z,50.04
2023-07-17T03:03:14.856Z,50.03
2023-07-17T03:04:14.823Z,50.14
2023-07-17T03:05:15.003Z,50.06
2023-07-17T03:06:14.793Z,50.05
2023-07-17T03:07:14.864Z,49.99
2023-07-17T03:08:14.875Z,50.03
2023-07-17T03:09:14.854Z,50.11
2023-07-17T03:10:14.769Z,50.00
2023-07-17T03:11:14.950Z,50.09
2023-07-17T03:12:14.792Z,50.14
2023-07-17T03:13:14.807Z,50.22
2023-07-17T03:14:14.787Z,50.16
2023-07-17T03:15:14.787Z,50.13
2023-07-17T03:16:14.952Z,50.12
2023-07-17T03:17:14.795Z,50.11
2023-07-17T03:18:14.767Z,50.18
2023-07-17T03:19:14.855Z,50.12
2023-07-17T03:20:14.789Z,50.16
2023-07-17T03:21:15.029Z,50.14
2023-07-17T03:22:14.813Z,50.13
2023-07-17T03:23:14.784Z,50.21
2023-07-17T03:24:14.846Z,50.31
2023-07-17T03:25:14.793Z,50.22
2023-07-17T03:26:14.794Z,50.23
2023-07-17T03:27:14.768Z,50.20
2023-07-17T03:28:14.796Z,50.28
2023-07-17T03:29:14.850Z,50.34
2023-07-17T03:30:14.799Z,50.22
2023-07-17T03:31:14.886Z,50.24
2023-07-17T03:32:15.044Z,50.25
2023-07-17T03:33:14.935Z,50.30
2023-07-17T03:34:14.808Z,50.30
2023-07-17T03:35:14.804Z,50.28
2023-07-17T03:36:14.823Z,50.28
2023-07-17T03:37:14.810Z,50.28
2023-07-17T03:38:14.802Z,50.31
2023-07-17T03:39:15.061Z,50.24
2023-07-17T03:40:14.872Z,50.22
2023-07-17T03:41:14.832Z,50.30
2023-07-17T03:42:14.953Z,50.26
2023-07-17T03:43:14.839Z,50.13
2023-07-17T03:44:14.865Z,50.10
2023-07-17T03:45:14.804Z,50.26
2023-07-17T03:46:14.810Z,50.28
2023-07-17T03:47:14.906Z,50.24
2023-07-17T03:48:14.815Z,50.29
2023-07-17T03:49:14.836Z,50.30
2023-07-17T03:50:14.859Z,50.25
2023-07-17T03:51:14.823Z,50.28
2023-07-17T03:52:14.857Z,50.31
2023-07-17T03:53:14.818Z,50.38
2023-07-17T03:54:15.143Z,50.21
2023-07-17T03:55:14.874Z,49.93
2023-07-17T03:56:14.910Z,49.75
2023-07-17T03:57:14.954Z,49.70
2023-07-17T03:58:14.987Z,49.63
2023-07-17T03:59:15.114Z,49.44
2023-07-17T04:00:15.205Z,49.33
2023-07-17T04:01:15.268Z,49.11
2023-07-17T04:02:15.044Z,49.10
2023-07-17T04:03:15.111Z,48.90
2023-07-17T04:04:15.052Z,48.73
2023-07-17T04:05:15.092Z,48.78
2023-07-17T04:06:15.224Z,48.77
2023-07-17T04:07:15.169Z,48.72
2023-07-17T04:08:15.163Z,48.77
2023-07-17T04:09:15.030Z,48.65
2023-07-17T04:10:15.055Z,48.58
2023-07-17T04:11:15.171Z,48.47
2023-07-17T04:12:15.089Z,48.41
2023-07-17T04:13:15.205Z,48.38
2023-07-17T04:14:15.132Z,48.36
2023-07-17T04:15:15.130Z,48.35
2023-07-17T04:16:15.233Z,48.36
2023-07-17T04:17:15.275Z,48.28
2023-07-17T04:18:15.198Z,48.30
2023-07-17T04:19:15.096Z,48.21
2023-07-17T04:20:15.292Z,48.30
2023-07-17T04:21:15.292Z,48.32
2023-07-17T04:22:15.252Z,48.32
2023-07-17T04:23:15.322Z,48.41
2023-07-17T04:24:15.360Z,48.19
2023-07-17T04:25:15.234Z,48.16
2023-07-17T04:26:15.297Z,48.50
2023-07-17T04:27:15.306Z,48.40
2023-07-17T04:28:15.284Z,48.28
2023-07-17T04:29:15.302Z,48.29
2023-07-17T04:30:15.299Z,48.30
2023-07-17T04:31:15.445Z,48.32
2023-07-17T04:32:15.334Z,48.42
2023-07-17T04:33:15.436Z,48.38
2023-07-17T04:34:15.377Z,48.39
2023-07-17T04:35:15.358Z,48.40
2023-07-17T04:36:15.458Z,48.56
2023-07-17T04:37:15.590Z,48.52
2023-07-17T04:38:15.549Z,48.49
2023-07-17T04:39:15.542Z,48.68
2023-07-17T04:40:15.610Z,48.87
2023-07-17T04:41:15.835Z,48.89
2023-07-17T04:42:15.784Z,48.74
2023-07-17T04:43:15.786Z,48.93
2023-07-17T04:44:15.884Z,49.07
2023-07-17T04:45:15.937Z,48.98
2023-07-17T04:46:16.018Z,49.16
2023-07-17T04:47:16.068Z,49.25
2023-07-17T04:48:16.151Z,49.29
2023-07-17T04:49:16.188Z,49.36
2023-07-17T04:50:16.221Z,49.27
2023-07-17T04:51:16.663Z,49.14
2023-07-17T04:52:16.350Z,49.30
2023-07-17T04:53:16.440Z,49.39
2023-07-17T04:54:16.436Z,49.47
2023-07-17T04:55:16.495Z,49.65
2023-07-17T04:56:16.607Z,49.72
2023-07-17T04:57:16.606Z,49.87
2023-07-17T04:58:16.667Z,49.96
2023-07-17T04:59:16.699Z,50.11
2023-07-17T05:00:16.766Z,50.11
2023-07-17T05:01:17.260Z,50.22
2023-07-17T05:02:16.888Z,50.40
2023-07-17T05:03:17.061Z,50.38
2023-07-17T05:04:17.055Z,50.42
2023-07-17T05:05:17.073Z,50.25
2023-07-17T05:06:17.127Z,50.47
2023-07-17T05:07:17.226Z,50.68
2023-07-17T05:08:17.254Z,50.65
2023-07-17T05:09:17.334Z,50.57
2023-07-17T05:10:17.367Z,50.46
2023-07-17T05:11:17.755Z,50.64
2023-07-17T05:12:17.468Z,50.85
2023-07-17T05:13:17.520Z,50.72
2023-07-17T05:14:17.593Z,50.89
2023-07-17T05:15:17.661Z,50.74
2023-07-17T05:16:17.762Z,50.62
2023-07-17T05:17:17.736Z,50.64
2023-07-17T05:18:17.757Z,50.55
2023-07-17T05:19:17.806Z,50.43
2023-07-17T05:20:17.802Z,50.47
2023-07-17T05:21:18.673Z,50.37
2023-07-17T05:22:17.909Z,50.32
2023-07-17T05:23:19.061Z,50.15
2023-07-17T05:24:18.038Z,50.00
2023-07-17T05:25:18.047Z,49.97
2023-07-17T05:26:21.165Z,49.95
2023-07-17T05:27:18.073Z,49.99
2023-07-17T05:28:18.061Z,50.04
2023-07-17T05:29:18.067Z,49.98
2023-07-17T05:30:18.113Z,49.76
2023-07-17T05:31:18.340Z,49.73
2023-07-17T05:32:18.068Z,49.81
2023-07-17T05:33:18.043Z,49.78
2023-07-17T05:34:18.030Z,49.76
2023-07-17T05:35:19.377Z,49.77
2023-07-17T05:36:18.022Z,50.05
2023-07-17T05:37:18.059Z,50.05
2023-07-17T05:38:18.027Z,50.01
2023-07-17T05:39:18.067Z,50.05
2023-07-17T05:40:18.031Z,50.01
2023-07-17T05:41:18.203Z,49.98
2023-07-17T05:42:18.056Z,49.84
2023-07-17T05:43:18.006Z,49.86
2023-07-17T05:44:17.976Z,49.80
2023-07-17T05:45:17.982Z,49.76
2023-07-17T05:46:18.021Z,49.77
2023-07-17T05:47:17.956Z,49.67
2023-07-17T05:48:17.973Z,49.55
2023-07-17T05:49:18.022Z,49.59
2023-07-17T05:50:18.026Z,49.58
2023-07-17T05:51:18.294Z,49.59
2023-07-17T05:52:18.182Z,49.55
2023-07-17T05:53:18.170Z,49.58
2023-07-17T05:54:18.205Z,49.87
2023-07-17T05:55:18.260Z,49.67
2023-07-17T05:56:18.345Z,49.63
2023-07-17T05:57:18.392Z,49.77
2023-07-17T05:58:18.435Z,49.82
2023-07-17T05:59:18.488Z,49.91
2023-07-17T06:00:18.494Z,49.93
2023-07-17T06:01:18.763Z,49.91
2023-07-17T06:02:18.591Z,49.90
2023-07-17T06:03:18.572Z,49.82
2023-07-17T06:04:18.753Z,49.88
2023-07-17T06:05:18.788Z,50.06
2023-07-17T06:06:18.781Z,50.17
2023-07-17T06:07:18.844Z,50.32
2023-07-17T06:08:18.923Z,51.08
2023-07-17T06:09:18.924Z,50.95
2023-07-17T06:10:19.003Z,51.32
2023-07-17T06:11:19.391Z,51.30
2023-07-17T06:12:19.161Z,51.10
2023-07-17T06:13:19.183Z,51.22
2023-07-17T06:14:19.242Z,51.14
2023-07-17T06:15:19.297Z,51.59
2023-07-17T06:16:19.378Z,51.84
2023-07-17T06:17:19.410Z,51.70
2023-07-17T06:18:19.480Z,51.17
2023-07-17T06:19:19.521Z,51.54
2023-07-17T06:20:19.576Z,51.93
2023-07-17T06:21:19.960Z,52.05
2023-07-17T06:22:19.681Z,52.51
2023-07-17T06:23:19.771Z,52.76
2023-07-17T06:24:19.794Z,52.88
2023-07-17T06:25:19.801Z,53.08
2023-07-17T06:26:19.843Z,53.20
2023-07-17T06:27:19.894Z,52.78
2023-07-17T06:28:19.992Z,52.92
2023-07-17T06:29:20.065Z,52.57
2023-07-17T06:30:20.071Z,52.67
2023-07-17T06:31:20.422Z,52.91
2023-07-17T06:32:20.302Z,52.94
2023-07-17T06:33:20.187Z,53.32
2023-07-17T06:34:20.257Z,53.07
2023-07-17T06:35:20.274Z,53.19
2023-07-17T06:36:20.357Z,52.78
2023-07-17T06:37:20.354Z,53.31
2023-07-17T06:38:20.437Z,53.49
2023-07-17T06:39:21.091Z,53.46
2023-07-17T06:40:20.542Z,53.85
2023-07-17T06:41:20.745Z,53.61
2023-07-17T06:42:20.606Z,53.18
2023-07-17T06:43:20.650Z,53.13
2023-07-17T06:44:20.712Z,53.09
2023-07-17T06:45:20.769Z,52.84
2023-07-17T06:46:21.109Z,53.42
2023-07-17T06:47:34.096Z,53.52
2023-07-17T06:48:21.839Z,53.37
2023-07-17T06:49:21.788Z,53.37
2023-07-17T06:50:20.778Z,53.20
2023-07-17T06:51:20.776Z,52.98
2023-07-17T06:52:20.786Z,52.78
2023-07-17T06:53:20.723Z,52.80
2023-07-17T06:54:20.794Z,53.02
2023-07-17T06:55:20.732Z,52.32
2023-07-17T06:56:20.766Z,52.22
2023-07-17T06:57:20.756Z,52.37
2023-07-17T06:58:20.727Z,52.43
2023-07-17T06:59:20.736Z,52.11
2023-07-17T07:00:20.667Z,52.00
2023-07-17T07:01:20.788Z,51.92
2023-07-17T07:02:20.685Z,51.96
2023-07-17T07:03:20.728Z,52.45
2023-07-17T07:04:20.781Z,52.58
2023-07-17T07:05:20.693Z,52.06
2023-07-17T07:06:20.806Z,51.73
2023-07-17T07:07:20.678Z,51.62
2023-07-17T07:08:20.661Z,51.52
2023-07-17T07:09:20.703Z,51.46
2023-07-17T07:10:20.698Z,51.20
2023-07-17T07:11:20.687Z,51.28
2023-07-17T07:12:20.699Z,51.27
2023-07-17T07:13:20.656Z,51.30
2023-07-17T07:14:20.654Z,51.10
2023-07-17T07:15:20.660Z,50.83
2023-07-17T07:16:20.893Z,50.36
2023-07-17T07:17:20.633Z,50.21
2023-07-17T07:18:20.605Z,50.22
2023-07-17T07:19:20.601Z,50.49
2023-07-17T07:20:20.588Z,50.13
2023-07-17T07:21:20.666Z,50.08
2023-07-17T07:22:20.570Z,50.21
2023-07-17T07:23:20.646Z,50.54
2023-07-17T07:24:20.607Z,50.22
2023-07-17T07:25:20.618Z,50.05
2023-07-17T07:26:20.945Z,49.67
2023-07-17T07:27:20.602Z,49.30
2023-07-17T07:28:20.532Z,49.35
2023-07-17T07:29:20.573Z,49.37
2023-07-17T07:30:20.544Z,49.24
2023-07-17T07:31:20.582Z,49.02
2023-07-17T07:32:20.559Z,48.89
2023-07-17T07:33:20.547Z,48.39
2023-07-17T07:34:20.499Z,48.36
2023-07-17T07:35:20.495Z,48.80
2023-07-17T07:36:20.642Z,48.58
2023-07-17T07:37:20.523Z,48.43
2023-07-17T07:38:20.564Z,48.93
2023-07-17T07:39:20.471Z,48.71
2023-07-17T07:40:20.470Z,49.36
2023-07-17T07:41:20.509Z,49.02
2023-07-17T07:42:20.564Z,48.23
2023-07-17T07:43:20.512Z,48.36
2023-07-17T07:44:20.521Z,47.64
2023-07-17T07:45:20.482Z,47.44
2023-07-17T07:46:21.030Z,47.62
2023-07-17T07:47:20.567Z,47.75
2023-07-17T07:48:20.446Z,47.80
2023-07-17T07:49:20.456Z,47.95
2023-07-17T07:50:20.480Z,47.89
2023-07-17T07:51:20.500Z,47.86
2023-07-17T07:52:20.536Z,48.20
2023-07-17T07:53:20.593Z,48.25
2023-07-17T07:54:22.412Z,48.65
2023-07-17T07:55:22.921Z,48.56
2023-07-17T07:56:21.000Z,48.58
2023-07-17T07:57:20.614Z,48.76
2023-07-17T07:58:20.619Z,49.14
2023-07-17T07:59:20.579Z,48.92
2023-07-17T08:00:20.552Z,48.81
2023-07-17T08:01:20.531Z,48.59
2023-07-17T08:02:20.618Z,48.71
2023-07-17T08:03:20.593Z,48.74
2023-07-17T08:04:20.641Z,49.15
2023-07-17T08:05:20.559Z,48.93
2023-07-17T08:06:20.748Z,48.31
2023-07-17T08:07:20.511Z,48.47
2023-07-17T08:08:20.577Z,48.46
2023-07-17T08:09:20.528Z,48.56
2023-07-17T08:10:20.491Z,48.41
2023-07-17T08:11:20.459Z,49.10
2023-07-17T08:12:20.505Z,48.83
2023-07-17T08:13:20.507Z,48.55
2023-07-17T08:14:20.445Z,48.55
2023-07-17T08:15:20.458Z,48.65
2023-07-17T08:16:20.737Z,48.75
2023-07-17T08:17:20.478Z,49.13
2023-07-17T08:18:20.441Z,49.06
2023-07-17T08:19:20.455Z,48.90
2023-07-17T08:20:20.551Z,48.80
2023-07-17T08:21:20.530Z,48.72
2023-07-17T08:22:20.415Z,48.52
2023-07-17T08:23:20.422Z,48.21
2023-07-17T08:24:20.395Z,48.22
2023-07-17T08:25:20.389Z,47.98
2023-07-17T08:26:20.446Z,48.34
2023-07-17T08:27:20.414Z,48.74
2023-07-17T08:28:20.397Z,48.63
2023-07-17T08:29:20.352Z,48.81
2023-07-17T08:30:20.357Z,48.59
2023-07-17T08:31:20.383Z,48.34
2023-07-17T08:32:20.383Z,48.37
2023-07-17T08:33:20.457Z,48.21
2023-07-17T08:34:20.365Z,48.45
2023-07-17T08:35:20.359Z,48.20
2023-07-17T08:36:20.372Z,48.43
2023-07-17T08:37:20.368Z,48.20
2023-07-17T08:38:20.408Z,47.94
2023-07-17T08:39:20.367Z,48.35
2023-07-17T08:40:20.362Z,48.53
2023-07-17T08:41:20.406Z,48.61
2023-07-17T08:42:20.326Z,48.44
2023-07-17T08:43:20.277Z,48.28
2023-07-17T08:44:20.257Z,48.57
2023-07-17T08:45:20.341Z,48.61
2023-07-17T08:46:20.296Z,48.57
2023-07-17T08:47:20.405Z,49.14
2023-07-17T08:48:20.273Z,49.24
2023-07-17T08:49:20.363Z,49.12
2023-07-17T08:50:20.405Z,49.76
2023-07-17T08:51:20.610Z,49.68
2023-07-17T08:52:20.515Z,49.81
2023-07-17T08:53:20.531Z,49.48
2023-07-17T08:55:21.655Z,49.78
2023-07-17T08:56:20.609Z,49.52
2023-07-17T08:57:20.575Z,49.44
2023-07-17T08:58:20.580Z,48.88
2023-07-17T08:59:20.631Z,49.04
2023-07-17T09:00:20.575Z,49.10
2023-07-17T09:01:20.596Z,49.12
2023-07-17T09:02:20.574Z,48.86
2023-07-17T09:03:20.630Z,48.62
2023-07-17T09:04:20.563Z,48.63
2023-07-17T09:05:20.585Z,48.65
2023-07-17T09:06:21.185Z,48.60
2023-07-17T09:07:20.538Z,48.27
2023-07-17T09:08:20.555Z,47.97
2023-07-17T09:09:20.640Z,48.02
2023-07-17T09:10:20.709Z,47.93
2023-07-17T09:11:20.773Z,47.49
2023-07-17T09:12:20.849Z,47.39
2023-07-17T09:13:20.843Z,47.49
2023-07-17T09:14:20.890Z,47.60
2023-07-17T09:15:20.952Z,48.01
2023-07-17T09:16:20.997Z,48.14
2023-07-17T09:17:21.120Z,48.19
2023-07-17T09:18:21.092Z,48.13
2023-07-17T09:19:21.111Z,47.96
2023-07-17T09:20:21.186Z,47.89
2023-07-17T09:21:21.384Z,47.83
2023-07-17T09:22:21.245Z,47.92
2023-07-17T09:23:21.312Z,47.50
2023-07-17T09:24:21.334Z,46.96
2023-07-17T09:25:21.610Z,47.07
2023-07-17T09:26:21.367Z,46.93
2023-07-17T09:27:21.352Z,46.62
2023-07-17T09:28:21.356Z,46.47
2023-07-17T09:29:21.357Z,46.50
2023-07-17T09:30:21.356Z,46.18
2023-07-17T09:31:21.464Z,46.17
2023-07-17T09:32:21.355Z,46.24
2023-07-17T09:33:21.392Z,46.07
2023-07-17T09:34:21.388Z,46.15
2023-07-17T09:35:21.455Z,45.88
2023-07-17T09:36:21.389Z,45.62
2023-07-17T09:37:21.369Z,45.57
2023-07-17T09:38:21.366Z,45.84
2023-07-17T09:39:21.388Z,45.92
2023-07-17T09:40:21.386Z,45.63
2023-07-17T09:41:21.659Z,45.48
2023-07-17T09:42:21.593Z,45.65
2023-07-17T09:43:21.494Z,45.30
2023-07-17T09:44:21.590Z,45.26
2023-07-17T09:45:21.548Z,45.23
2023-07-17T09:46:21.705Z,45.01
2023-07-17T09:47:21.610Z,44.77
2023-07-17T09:48:21.581Z,44.64
2023-07-17T09:49:21.602Z,44.63
2023-07-17T09:50:21.643Z,44.16
2023-07-17T09:51:21.663Z,44.47
2023-07-17T09:52:21.754Z,44.19
2023-07-17T09:53:21.761Z,43.92
2023-07-17T09:54:21.834Z,44.06
2023-07-17T09:55:21.960Z,43.41
2023-07-17T09:56:21.921Z,43.54
2023-07-17T09:57:21.952Z,43.37
2023-07-17T09:58:21.953Z,43.43
2023-07-17T09:59:21.993Z,43.79
2023-07-17T10:00:22.053Z,43.97
2023-07-17T10:01:22.261Z,44.34
2023-07-17T10:02:22.165Z,44.20
2023-07-17T10:03:22.314Z,44.36
2023-07-17T10:04:22.211Z,44.01
2023-07-17T10:05:22.288Z,43.90
2023-07-17T10:06:22.320Z,44.12
2023-07-17T10:07:22.322Z,43.93
2023-07-17T10:08:22.469Z,43.98
2023-07-17T10:09:22.456Z,44.01
2023-07-17T10:10:22.465Z,43.99
2023-07-17T10:11:22.535Z,43.78
2023-07-17T10:12:22.548Z,43.41
2023-07-17T10:13:22.591Z,43.09
2023-07-17T10:14:22.632Z,43.23
2023-07-17T10:15:22.790Z,43.32
2023-07-17T10:16:22.740Z,43.35
2023-07-17T10:17:22.735Z,43.42
2023-07-17T10:18:22.759Z,43.75
2023-07-17T10:19:22.802Z,43.75
2023-07-17T10:20:22.831Z,43.69
2023-07-17T10:21:23.054Z,43.76
2023-07-17T10:22:22.857Z,43.96
2023-07-17T10:23:22.875Z,44.07
2023-07-17T10:24:23.062Z,44.23
2023-07-17T10:25:22.948Z,44.09
2023-07-17T10:26:22.950Z,43.82
2023-07-17T10:27:22.940Z,43.84
2023-07-17T10:28:23.016Z,43.69
2023-07-17T10:29:23.009Z,43.33
2023-07-17T10:30:22.999Z,43.05
2023-07-17T10:31:23.444Z,42.91
2023-07-17T10:32:23.014Z,43.21
2023-07-17T10:33:23.096Z,43.33
2023-07-17T10:34:23.012Z,43.47
2023-07-17T10:35:23.040Z,43.54
2023-07-17T10:36:23.086Z,43.56
2023-07-17T10:37:23.082Z,43.49
2023-07-17T10:38:23.087Z,43.16
2023-07-17T10:39:23.164Z,43.25
2023-07-17T10:40:23.159Z,42.97
2023-07-17T10:41:23.123Z,42.11
2023-07-17T10:42:23.284Z,42.04
2023-07-17T10:43:23.223Z,41.61
2023-07-17T10:44:23.329Z,41.24
2023-07-17T10:45:23.298Z,41.44
2023-07-17T10:46:23.406Z,40.88
2023-07-17T10:47:23.376Z,40.72
2023-07-17T10:48:23.438Z,40.66
2023-07-17T10:49:23.489Z,40.97
2023-07-17T10:50:23.519Z,40.83
2023-07-17T10:51:23.562Z,40.82
2023-07-17T10:52:23.620Z,40.60
2023-07-17T10:53:23.683Z,40.51
2023-07-17T10:54:23.727Z,40.42
2023-07-17T10:55:23.798Z,40.48
2023-07-17T10:56:23.889Z,40.55
2023-07-17T10:57:23.861Z,40.62
2023-07-17T10:58:23.828Z,40.45
2023-07-17T10:59:23.914Z,40.31
2023-07-17T11:00:24.013Z,40.32
2023-07-17T11:01:24.068Z,40.09
2023-07-17T11:02:24.071Z,40.21
2023-07-17T11:03:24.120Z,40.07
2023-07-17T11:04:24.226Z,39.98
2023-07-17T11:05:24.229Z,40.03
2023-07-17T11:06:24.294Z,40.38
2023-07-17T11:07:24.333Z,40.17
2023-07-17T11:08:24.382Z,40.29
2023-07-17T11:09:24.461Z,40.19
2023-07-17T11:10:24.549Z,40.10
2023-07-17T11:11:24.480Z,40.23
2023-07-17T11:12:24.537Z,40.32
2023-07-17T11:13:24.567Z,40.00
2023-07-17T11:14:24.636Z,39.81
2023-07-17T11:15:24.809Z,39.76
2023-07-17T11:16:24.744Z,39.81
2023-07-17T11:17:24.833Z,39.86
2023-07-17T11:18:24.865Z,39.52
2023-07-17T11:19:24.890Z,39.53
2023-07-17T11:20:24.994Z,39.24
2023-07-17T11:21:24.933Z,39.40
2023-07-17T11:22:24.983Z,39.01
2023-07-17T11:23:24.991Z,38.65
2023-07-17T11:24:24.977Z,38.85
2023-07-17T11:25:25.006Z,38.89
2023-07-17T11:26:24.995Z,38.61
2023-07-17T11:27:25.000Z,38.33
2023-07-17T11:28:24.995Z,38.42
2023-07-17T11:29:24.988Z,38.72
2023-07-17T11:30:25.064Z,38.88
2023-07-17T11:31:25.281Z,38.50
2023-07-17T11:32:25.051Z,38.62
2023-07-17T11:33:25.134Z,38.57
2023-07-17T11:34:25.119Z,38.87
2023-07-17T11:35:25.184Z,38.89
2023-07-17T11:36:25.198Z,38.45
2023-07-17T11:37:25.239Z,38.78
2023-07-17T11:38:25.244Z,38.66
2023-07-17T11:39:25.273Z,38.45
2023-07-17T11:40:25.334Z,38.25
2023-07-17T11:41:25.335Z,38.27
2023-07-17T11:42:25.404Z,38.23
2023-07-17T11:43:25.458Z,38.20
2023-07-17T11:44:25.464Z,38.09
2023-07-17T11:45:25.491Z,38.29
2023-07-17T11:46:25.546Z,38.13
2023-07-17T11:47:25.566Z,38.29
2023-07-17T11:48:25.497Z,38.03
2023-07-17T11:49:25.508Z,38.43
2023-07-17T11:50:25.540Z,38.12
2023-07-17T11:51:25.501Z,37.90
2023-07-17T11:52:25.552Z,37.83
2023-07-17T11:53:25.532Z,37.92
2023-07-17T11:54:25.570Z,37.83
2023-07-17T11:55:25.581Z,37.61
2023-07-17T11:56:25.646Z,37.74
2023-07-17T11:57:25.691Z,37.72
2023-07-17T11:58:25.706Z,37.92
2023-07-17T11:59:25.722Z,37.68
2023-07-17T12:00:25.775Z,37.71
2023-07-17T12:01:25.878Z,37.48
2023-07-17T12:02:25.907Z,37.32
2023-07-17T12:03:25.979Z,37.25
2023-07-17T12:04:26.004Z,36.93
2023-07-17T12:05:26.062Z,36.89
2023-07-17T12:06:26.177Z,36.91
2023-07-17T12:07:26.158Z,36.66
2023-07-17T12:08:26.166Z,37.02
2023-07-17T12:09:26.175Z,36.91
2023-07-17T12:10:27.607Z,36.93
2023-07-17T12:11:26.278Z,36.95
2023-07-17T12:12:26.367Z,36.75
2023-07-17T12:13:26.409Z,36.54
2023-07-17T12:14:26.455Z,36.32
2023-07-17T12:15:26.454Z,36.06
2023-07-17T12:16:26.564Z,36.12
2023-07-17T12:17:26.563Z,35.96
2023-07-17T12:18:26.559Z,36.13
2023-07-17T12:19:26.619Z,36.24
2023-07-17T12:20:26.633Z,36.15
2023-07-17T12:21:30.335Z,36.87
2023-07-17T12:22:26.697Z,36.79
2023-07-17T12:23:26.650Z,36.58
2023-07-17T12:24:26.769Z,36.70
2023-07-17T12:25:26.623Z,36.75
2023-07-17T12:26:27.617Z,36.90
2023-07-17T12:27:29.358Z,37.12
2023-07-17T12:28:26.620Z,37.30
2023-07-17T12:29:28.479Z,37.16
2023-07-17T12:30:26.953Z,36.43
2023-07-17T12:31:26.649Z,36.15
2023-07-17T12:32:26.627Z,36.41
2023-07-17T12:33:26.614Z,36.21
2023-07-17T12:34:26.626Z,36.09
2023-07-17T12:35:26.625Z,35.88
2023-07-17T12:36:26.605Z,35.74
2023-07-17T12:37:26.590Z,35.70
2023-07-17T12:38:26.579Z,35.77
2023-07-17T12:39:26.571Z,35.56
2023-07-17T12:40:26.581Z,35.37
2023-07-17T12:41:26.551Z,35.32
2023-07-17T12:42:26.564Z,35.62
2023-07-17T12:43:26.586Z,35.93
2023-07-17T12:44:26.587Z,35.79
2023-07-17T12:45:26.626Z,35.73
2023-07-17T12:46:26.735Z,35.90
2023-07-17T12:47:26.706Z,35.82
2023-07-17T12:48:26.726Z,36.09
2023-07-17T12:49:26.695Z,36.00
2023-07-17T12:50:26.745Z,35.92
2023-07-17T12:51:26.799Z,35.92
2023-07-17T12:52:26.867Z,36.03
2023-07-17T12:53:26.892Z,35.84